sensor_id;sensor_type;location;lat;lon;timestamp;P1;durP1;ratioP1;P2;durP2;ratioP2
51475;SDS011;37554;50.362;7.568;2022-10-16T00:02:21;1.10;;;0.60;;
51475;SDS011;37554;50.362;7.568;2022-10-16T00:04:46;1.65;;;0.80;;
51475;SDS011;37554;50.362;7.568;2022-10-16T00:07:12;2.97;;;0.63;;
51475;SDS011;37554;50.362;7.568;2022-10-16T00:09:37;0.90;;;0.70;;
51475;SDS011;37554;50.362;7.568;2022-10-16T00:12:03;1.63;;;0.63;;
51475;SDS011;37554;50.362;7.568;2022-10-16T00:14:31;2.38;;;0.70;;
51475;SDS011;37554;50.362;7.568;2022-10-16T00:16:57;0.60;;;0.52;;
51475;SDS011;37554;50.362;7.568;2022-10-16T00:19:22;1.45;;;0.90;;
51475;SDS011;37554;50.362;7.568;2022-10-16T00:21:48;0.88;;;0.60;;
51475;SDS011;37554;50.362;7.568;2022-10-16T00:24:13;0.98;;;0.60;;
51475;SDS011;37554;50.362;7.568;2022-10-16T00:26:39;2.65;;;0.70;;
51475;SDS011;37554;50.362;7.568;2022-10-16T00:29:05;1.15;;;0.50;;
51475;SDS011;37554;50.362;7.568;2022-10-16T00:31:31;1.08;;;0.80;;
51475;SDS011;37554;50.362;7.568;2022-10-16T00:33:57;2.25;;;0.60;;
51475;SDS011;37554;50.362;7.568;2022-10-16T00:36:23;0.70;;;0.60;;
51475;SDS011;37554;50.362;7.568;2022-10-16T00:38:50;1.00;;;0.70;;
51475;SDS011;37554;50.362;7.568;2022-10-16T00:41:18;0.68;;;0.60;;
51475;SDS011;37554;50.362;7.568;2022-10-16T00:46:18;1.27;;;0.80;;
51475;SDS011;37554;50.362;7.568;2022-10-16T00:49:05;3.65;;;0.50;;
51475;SDS011;37554;50.362;7.568;2022-10-16T00:51:40;0.98;;;0.60;;
51475;SDS011;37554;50.362;7.568;2022-10-16T00:54:14;1.08;;;0.50;;
51475;SDS011;37554;50.362;7.568;2022-10-16T00:56:51;0.88;;;0.50;;
51475;SDS011;37554;50.362;7.568;2022-10-16T00:59:18;1.10;;;0.60;;
51475;SDS011;37554;50.362;7.568;2022-10-16T01:01:49;0.97;;;0.70;;
51475;SDS011;37554;50.362;7.568;2022-10-16T01:04:16;0.60;;;0.47;;
51475;SDS011;37554;50.362;7.568;2022-10-16T01:17:35;0.95;;;0.60;;
51475;SDS011;37554;50.362;7.568;2022-10-16T01:28:28;0.70;;;0.55;;
51475;SDS011;37554;50.362;7.568;2022-10-16T01:30:59;0.73;;;0.55;;
51475;SDS011;37554;50.362;7.568;2022-10-16T01:33:28;0.73;;;0.60;;
51475;SDS011;37554;50.362;7.568;2022-10-16T01:36:07;1.17;;;0.40;;
51475;SDS011;37554;50.362;7.568;2022-10-16T01:38:39;0.88;;;0.60;;
51475;SDS011;37554;50.362;7.568;2022-10-16T01:41:08;1.35;;;0.40;;
51475;SDS011;37554;50.362;7.568;2022-10-16T01:43:38;0.88;;;0.50;;
51475;SDS011;37554;50.362;7.568;2022-10-16T01:46:13;1.73;;;0.50;;
51475;SDS011;37554;50.362;7.568;2022-10-16T01:48:41;2.00;;;0.50;;
51475;SDS011;37554;50.362;7.568;2022-10-16T01:51:09;0.32;;;0.32;;
51475;SDS011;37554;50.362;7.568;2022-10-16T01:53:37;0.60;;;0.50;;
51475;SDS011;37554;50.362;7.568;2022-10-16T01:56:05;0.98;;;0.50;;
51475;SDS011;37554;50.362;7.568;2022-10-16T01:58:35;1.35;;;0.50;;
51475;SDS011;37554;50.362;7.568;2022-10-16T02:01:06;0.80;;;0.60;;
51475;SDS011;37554;50.362;7.568;2022-10-16T02:03:34;1.98;;;0.47;;
51475;SDS011;37554;50.362;7.568;2022-10-16T02:06:02;1.10;;;0.60;;
51475;SDS011;37554;50.362;7.568;2022-10-16T02:08:28;1.13;;;0.63;;
51475;SDS011;37554;50.362;7.568;2022-10-16T02:10:56;0.93;;;0.50;;
51475;SDS011;37554;50.362;7.568;2022-10-16T02:13:31;0.80;;;0.45;;
51475;SDS011;37554;50.362;7.568;2022-10-16T02:16:02;0.93;;;0.60;;
51475;SDS011;37554;50.362;7.568;2022-10-16T02:18:28;3.55;;;0.50;;
51475;SDS011;37554;50.362;7.568;2022-10-16T02:26:34;2.15;;;0.40;;
51475;SDS011;37554;50.362;7.568;2022-10-16T02:29:07;0.77;;;0.40;;
51475;SDS011;37554;50.362;7.568;2022-10-16T02:31:37;0.77;;;0.60;;
51475;SDS011;37554;50.362;7.568;2022-10-16T02:34:06;0.60;;;0.52;;
51475;SDS011;37554;50.362;7.568;2022-10-16T02:36:33;0.70;;;0.40;;
51475;SDS011;37554;50.362;7.568;2022-10-16T02:39:00;0.80;;;0.50;;
51475;SDS011;37554;50.362;7.568;2022-10-16T02:41:30;0.98;;;0.50;;
51475;SDS011;37554;50.362;7.568;2022-10-16T02:43:59;0.93;;;0.60;;
51475;SDS011;37554;50.362;7.568;2022-10-16T02:46:25;0.50;;;0.40;;
51475;SDS011;37554;50.362;7.568;2022-10-16T02:48:50;1.83;;;0.60;;
51475;SDS011;37554;50.362;7.568;2022-10-16T02:51:16;0.63;;;0.50;;
51475;SDS011;37554;50.362;7.568;2022-10-16T02:53:41;1.35;;;0.45;;
51475;SDS011;37554;50.362;7.568;2022-10-16T02:56:07;0.30;;;0.30;;
51475;SDS011;37554;50.362;7.568;2022-10-16T02:58:33;1.10;;;0.43;;
51475;SDS011;37554;50.362;7.568;2022-10-16T03:00:58;0.70;;;0.50;;
51475;SDS011;37554;50.362;7.568;2022-10-16T03:03:24;0.80;;;0.50;;
51475;SDS011;37554;50.362;7.568;2022-10-16T03:05:49;0.40;;;0.40;;
51475;SDS011;37554;50.362;7.568;2022-10-16T03:08:15;1.25;;;0.40;;
51475;SDS011;37554;50.362;7.568;2022-10-16T03:10:41;0.77;;;0.50;;
51475;SDS011;37554;50.362;7.568;2022-10-16T03:13:06;1.27;;;0.50;;
51475;SDS011;37554;50.362;7.568;2022-10-16T03:15:32;0.50;;;0.40;;
51475;SDS011;37554;50.362;7.568;2022-10-16T03:17:58;1.13;;;0.60;;
51475;SDS011;37554;50.362;7.568;2022-10-16T03:20:24;1.38;;;0.55;;
51475;SDS011;37554;50.362;7.568;2022-10-16T03:22:49;0.50;;;0.40;;
51475;SDS011;37554;50.362;7.568;2022-10-16T03:25:15;1.38;;;0.60;;
51475;SDS011;37554;50.362;7.568;2022-10-16T03:27:41;0.77;;;0.45;;
51475;SDS011;37554;50.362;7.568;2022-10-16T03:30:06;0.50;;;0.30;;
51475;SDS011;37554;50.362;7.568;2022-10-16T03:32:32;0.90;;;0.40;;
51475;SDS011;37554;50.362;7.568;2022-10-16T03:34:58;0.77;;;0.50;;
51475;SDS011;37554;50.362;7.568;2022-10-16T03:37:23;1.00;;;0.30;;
51475;SDS011;37554;50.362;7.568;2022-10-16T03:39:49;0.30;;;0.30;;
51475;SDS011;37554;50.362;7.568;2022-10-16T03:42:15;1.92;;;0.43;;
51475;SDS011;37554;50.362;7.568;2022-10-16T03:44:40;0.40;;;0.30;;
51475;SDS011;37554;50.362;7.568;2022-10-16T03:47:06;0.43;;;0.38;;
51475;SDS011;37554;50.362;7.568;2022-10-16T03:49:31;1.98;;;0.38;;
51475;SDS011;37554;50.362;7.568;2022-10-16T03:51:57;0.47;;;0.30;;
51475;SDS011;37554;50.362;7.568;2022-10-16T03:54:22;0.73;;;0.35;;
51475;SDS011;37554;50.362;7.568;2022-10-16T03:56:48;0.73;;;0.50;;
51475;SDS011;37554;50.362;7.568;2022-10-16T03:59:14;0.68;;;0.30;;
51475;SDS011;37554;50.362;7.568;2022-10-16T04:01:40;0.70;;;0.43;;
51475;SDS011;37554;50.362;7.568;2022-10-16T04:04:05;0.50;;;0.40;;
51475;SDS011;37554;50.362;7.568;2022-10-16T04:06:31;1.63;;;0.38;;
51475;SDS011;37554;50.362;7.568;2022-10-16T04:08:56;0.57;;;0.30;;
51475;SDS011;37554;50.362;7.568;2022-10-16T04:11:22;0.30;;;0.30;;
51475;SDS011;37554;50.362;7.568;2022-10-16T04:13:48;0.40;;;0.30;;
51475;SDS011;37554;50.362;7.568;2022-10-16T04:16:13;0.50;;;0.32;;
51475;SDS011;37554;50.362;7.568;2022-10-16T04:18:39;0.60;;;0.40;;
51475;SDS011;37554;50.362;7.568;2022-10-16T04:21:05;0.98;;;0.50;;
51475;SDS011;37554;50.362;7.568;2022-10-16T04:23:31;0.98;;;0.43;;
51475;SDS011;37554;50.362;7.568;2022-10-16T04:25:57;1.73;;;0.30;;
51475;SDS011;37554;50.362;7.568;2022-10-16T04:28:23;0.60;;;0.50;;
51475;SDS011;37554;50.362;7.568;2022-10-16T04:30:49;1.67;;;0.28;;
51475;SDS011;37554;50.362;7.568;2022-10-16T04:33:14;0.50;;;0.38;;
51475;SDS011;37554;50.362;7.568;2022-10-16T04:35:40;0.68;;;0.40;;
51475;SDS011;37554;50.362;7.568;2022-10-16T04:38:05;0.30;;;0.30;;
51475;SDS011;37554;50.362;7.568;2022-10-16T04:40:31;0.88;;;0.40;;
51475;SDS011;37554;50.362;7.568;2022-10-16T04:43:02;0.43;;;0.30;;
51475;SDS011;37554;50.362;7.568;2022-10-16T04:45:28;0.50;;;0.30;;
51475;SDS011;37554;50.362;7.568;2022-10-16T04:47:57;0.30;;;0.30;;
51475;SDS011;37554;50.362;7.568;2022-10-16T04:50:24;0.60;;;0.40;;
51475;SDS011;37554;50.362;7.568;2022-10-16T04:52:50;2.65;;;0.40;;
51475;SDS011;37554;50.362;7.568;2022-10-16T04:55:15;0.70;;;0.43;;
51475;SDS011;37554;50.362;7.568;2022-10-16T04:57:41;0.50;;;0.40;;
51475;SDS011;37554;50.362;7.568;2022-10-16T05:00:07;1.75;;;0.28;;
51475;SDS011;37554;50.362;7.568;2022-10-16T05:02:33;2.47;;;0.30;;
51475;SDS011;37554;50.362;7.568;2022-10-16T05:04:59;0.95;;;0.30;;
51475;SDS011;37554;50.362;7.568;2022-10-16T05:07:24;0.50;;;0.30;;
51475;SDS011;37554;50.362;7.568;2022-10-16T05:09:50;0.60;;;0.30;;
51475;SDS011;37554;50.362;7.568;2022-10-16T05:12:16;0.80;;;0.38;;
51475;SDS011;37554;50.362;7.568;2022-10-16T05:14:41;2.80;;;0.40;;
51475;SDS011;37554;50.362;7.568;2022-10-16T05:17:07;0.80;;;0.40;;
51475;SDS011;37554;50.362;7.568;2022-10-16T05:19:32;0.70;;;0.38;;
51475;SDS011;37554;50.362;7.568;2022-10-16T05:21:58;0.50;;;0.30;;
51475;SDS011;37554;50.362;7.568;2022-10-16T05:24:24;1.88;;;0.30;;
51475;SDS011;37554;50.362;7.568;2022-10-16T05:26:50;0.85;;;0.30;;
51475;SDS011;37554;50.362;7.568;2022-10-16T05:29:15;0.70;;;0.38;;
51475;SDS011;37554;50.362;7.568;2022-10-16T05:31:41;0.40;;;0.30;;
51475;SDS011;37554;50.362;7.568;2022-10-16T05:34:06;0.85;;;0.30;;
51475;SDS011;37554;50.362;7.568;2022-10-16T05:36:32;1.67;;;0.25;;
51475;SDS011;37554;50.362;7.568;2022-10-16T05:38:57;0.75;;;0.30;;
51475;SDS011;37554;50.362;7.568;2022-10-16T05:41:23;0.90;;;0.40;;
51475;SDS011;37554;50.362;7.568;2022-10-16T05:43:50;0.82;;;0.65;;
51475;SDS011;37554;50.362;7.568;2022-10-16T05:46:16;0.85;;;0.30;;
51475;SDS011;37554;50.362;7.568;2022-10-16T05:48:42;2.80;;;0.30;;
51475;SDS011;37554;50.362;7.568;2022-10-16T05:51:11;1.33;;;0.38;;
51475;SDS011;37554;50.362;7.568;2022-10-16T05:53:38;0.60;;;0.30;;
51475;SDS011;37554;50.362;7.568;2022-10-16T05:56:05;0.80;;;0.32;;
51475;SDS011;37554;50.362;7.568;2022-10-16T05:58:34;1.23;;;0.50;;
51475;SDS011;37554;50.362;7.568;2022-10-16T06:01:02;3.28;;;0.35;;
51475;SDS011;37554;50.362;7.568;2022-10-16T06:03:30;1.00;;;0.32;;
51475;SDS011;37554;50.362;7.568;2022-10-16T06:05:55;0.68;;;0.30;;
51475;SDS011;37554;50.362;7.568;2022-10-16T06:08:21;0.95;;;0.38;;
51475;SDS011;37554;50.362;7.568;2022-10-16T06:10:48;0.55;;;0.40;;
51475;SDS011;37554;50.362;7.568;2022-10-16T06:13:24;1.15;;;0.38;;
51475;SDS011;37554;50.362;7.568;2022-10-16T06:15:50;0.57;;;0.40;;
51475;SDS011;37554;50.362;7.568;2022-10-16T06:18:15;0.50;;;0.30;;
51475;SDS011;37554;50.362;7.568;2022-10-16T06:20:41;0.57;;;0.30;;
51475;SDS011;37554;50.362;7.568;2022-10-16T06:23:06;2.80;;;0.30;;
51475;SDS011;37554;50.362;7.568;2022-10-16T06:25:32;4.88;;;0.43;;
51475;SDS011;37554;50.362;7.568;2022-10-16T06:27:58;7.05;;;0.68;;
51475;SDS011;37554;50.362;7.568;2022-10-16T06:30:24;7.97;;;0.82;;
51475;SDS011;37554;50.362;7.568;2022-10-16T06:32:50;9.63;;;0.52;;
51475;SDS011;37554;50.362;7.568;2022-10-16T06:35:15;5.82;;;0.80;;
51475;SDS011;37554;50.362;7.568;2022-10-16T06:37:41;4.53;;;1.23;;
51475;SDS011;37554;50.362;7.568;2022-10-16T06:40:07;13.32;;;1.20;;
51475;SDS011;37554;50.362;7.568;2022-10-16T06:42:33;5.57;;;0.95;;
51475;SDS011;37554;50.362;7.568;2022-10-16T06:44:58;8.32;;;1.63;;
51475;SDS011;37554;50.362;7.568;2022-10-16T06:47:24;8.40;;;1.33;;
51475;SDS011;37554;50.362;7.568;2022-10-16T06:49:50;11.55;;;1.73;;
51475;SDS011;37554;50.362;7.568;2022-10-16T06:52:15;3.78;;;1.38;;
51475;SDS011;37554;50.362;7.568;2022-10-16T06:54:41;5.00;;;1.17;;
51475;SDS011;37554;50.362;7.568;2022-10-16T06:57:06;10.10;;;1.70;;
51475;SDS011;37554;50.362;7.568;2022-10-16T06:59:32;4.90;;;1.40;;
51475;SDS011;37554;50.362;7.568;2022-10-16T07:01:58;4.13;;;1.17;;
51475;SDS011;37554;50.362;7.568;2022-10-16T07:04:23;3.83;;;1.33;;
51475;SDS011;37554;50.362;7.568;2022-10-16T07:06:49;4.00;;;1.52;;
51475;SDS011;37554;50.362;7.568;2022-10-16T07:09:16;4.85;;;1.35;;
51475;SDS011;37554;50.362;7.568;2022-10-16T07:11:42;5.10;;;1.38;;
51475;SDS011;37554;50.362;7.568;2022-10-16T07:14:17;4.03;;;1.70;;
51475;SDS011;37554;50.362;7.568;2022-10-16T07:16:45;4.82;;;1.48;;
51475;SDS011;37554;50.362;7.568;2022-10-16T07:19:11;3.97;;;1.35;;
51475;SDS011;37554;50.362;7.568;2022-10-16T07:21:39;3.35;;;1.27;;
51475;SDS011;37554;50.362;7.568;2022-10-16T07:24:06;6.70;;;1.25;;
51475;SDS011;37554;50.362;7.568;2022-10-16T07:26:36;5.03;;;1.10;;
51475;SDS011;37554;50.362;7.568;2022-10-16T07:29:04;3.83;;;1.00;;
51475;SDS011;37554;50.362;7.568;2022-10-16T07:31:40;2.33;;;0.90;;
51475;SDS011;37554;50.362;7.568;2022-10-16T07:34:07;4.40;;;0.90;;
51475;SDS011;37554;50.362;7.568;2022-10-16T07:36:33;3.90;;;0.68;;
51475;SDS011;37554;50.362;7.568;2022-10-16T07:38:59;5.40;;;0.85;;
51475;SDS011;37554;50.362;7.568;2022-10-16T07:41:24;2.40;;;0.73;;
51475;SDS011;37554;50.362;7.568;2022-10-16T07:43:51;1.90;;;0.90;;
51475;SDS011;37554;50.362;7.568;2022-10-16T07:46:18;2.20;;;0.75;;
51475;SDS011;37554;50.362;7.568;2022-10-16T07:48:45;2.70;;;0.80;;
51475;SDS011;37554;50.362;7.568;2022-10-16T07:51:13;3.03;;;0.68;;
51475;SDS011;37554;50.362;7.568;2022-10-16T07:53:40;2.83;;;0.80;;
51475;SDS011;37554;50.362;7.568;2022-10-16T07:56:06;4.50;;;0.98;;
51475;SDS011;37554;50.362;7.568;2022-10-16T07:58:32;3.38;;;1.00;;
51475;SDS011;37554;50.362;7.568;2022-10-16T08:01:02;1.80;;;0.70;;
51475;SDS011;37554;50.362;7.568;2022-10-16T08:03:29;3.17;;;0.50;;
51475;SDS011;37554;50.362;7.568;2022-10-16T08:05:56;2.78;;;0.70;;
51475;SDS011;37554;50.362;7.568;2022-10-16T08:08:23;1.50;;;0.68;;
51475;SDS011;37554;50.362;7.568;2022-10-16T08:10:49;3.60;;;0.80;;
51475;SDS011;37554;50.362;7.568;2022-10-16T08:13:14;1.00;;;0.57;;
51475;SDS011;37554;50.362;7.568;2022-10-16T08:15:41;1.67;;;0.60;;
51475;SDS011;37554;50.362;7.568;2022-10-16T08:18:08;2.97;;;0.68;;
51475;SDS011;37554;50.362;7.568;2022-10-16T08:20:35;2.50;;;0.60;;
51475;SDS011;37554;50.362;7.568;2022-10-16T08:23:01;0.90;;;0.40;;
51475;SDS011;37554;50.362;7.568;2022-10-16T08:25:27;1.55;;;0.55;;
51475;SDS011;37554;50.362;7.568;2022-10-16T08:27:53;2.08;;;0.77;;
51475;SDS011;37554;50.362;7.568;2022-10-16T08:30:20;2.88;;;0.50;;
51475;SDS011;37554;50.362;7.568;2022-10-16T08:32:46;2.95;;;0.50;;
51475;SDS011;37554;50.362;7.568;2022-10-16T08:35:13;1.13;;;0.40;;
51475;SDS011;37554;50.362;7.568;2022-10-16T08:37:39;3.92;;;0.57;;
51475;SDS011;37554;50.362;7.568;2022-10-16T08:40:06;5.72;;;0.70;;
51475;SDS011;37554;50.362;7.568;2022-10-16T08:51:07;5.18;;;0.70;;
51475;SDS011;37554;50.362;7.568;2022-10-16T08:53:43;3.05;;;0.65;;
51475;SDS011;37554;50.362;7.568;2022-10-16T08:56:13;5.00;;;0.80;;
51475;SDS011;37554;50.362;7.568;2022-10-16T08:58:39;2.47;;;0.80;;
51475;SDS011;37554;50.362;7.568;2022-10-16T09:01:10;3.05;;;1.05;;
51475;SDS011;37554;50.362;7.568;2022-10-16T09:17:52;4.88;;;0.68;;
51475;SDS011;37554;50.362;7.568;2022-10-16T09:23:26;3.10;;;0.98;;
51475;SDS011;37554;50.362;7.568;2022-10-16T09:25:56;3.72;;;0.70;;
51475;SDS011;37554;50.362;7.568;2022-10-16T09:28:24;2.45;;;0.88;;
51475;SDS011;37554;50.362;7.568;2022-10-16T09:30:50;1.85;;;0.70;;
51475;SDS011;37554;50.362;7.568;2022-10-16T09:33:16;3.58;;;0.82;;
51475;SDS011;37554;50.362;7.568;2022-10-16T09:35:54;1.65;;;0.50;;
51475;SDS011;37554;50.362;7.568;2022-10-16T09:38:25;2.90;;;0.57;;
51475;SDS011;37554;50.362;7.568;2022-10-16T09:40:53;2.28;;;0.68;;
51475;SDS011;37554;50.362;7.568;2022-10-16T09:43:22;1.67;;;0.50;;
51475;SDS011;37554;50.362;7.568;2022-10-16T09:46:05;4.72;;;0.63;;
51475;SDS011;37554;50.362;7.568;2022-10-16T09:48:36;1.60;;;0.60;;
51475;SDS011;37554;50.362;7.568;2022-10-16T09:51:15;2.95;;;0.60;;
51475;SDS011;37554;50.362;7.568;2022-10-16T09:56:34;2.83;;;0.50;;
51475;SDS011;37554;50.362;7.568;2022-10-16T09:59:14;3.65;;;0.52;;
51475;SDS011;37554;50.362;7.568;2022-10-16T10:04:08;3.53;;;0.65;;
51475;SDS011;37554;50.362;7.568;2022-10-16T10:06:45;2.53;;;0.68;;
51475;SDS011;37554;50.362;7.568;2022-10-16T10:09:20;2.22;;;0.35;;
51475;SDS011;37554;50.362;7.568;2022-10-16T10:12:33;1.40;;;0.68;;
51475;SDS011;37554;50.362;7.568;2022-10-16T10:14:49;1.55;;;0.60;;
51475;SDS011;37554;50.362;7.568;2022-10-16T10:17:18;2.00;;;0.60;;
51475;SDS011;37554;50.362;7.568;2022-10-16T10:19:54;3.58;;;0.68;;
51475;SDS011;37554;50.362;7.568;2022-10-16T10:22:32;1.48;;;0.50;;
51475;SDS011;37554;50.362;7.568;2022-10-16T10:33:18;1.13;;;0.50;;
51475;SDS011;37554;50.362;7.568;2022-10-16T10:38:30;2.17;;;0.60;;
51475;SDS011;37554;50.362;7.568;2022-10-16T10:43:57;0.95;;;0.50;;
51475;SDS011;37554;50.362;7.568;2022-10-16T10:49:31;2.33;;;0.50;;
51475;SDS011;37554;50.362;7.568;2022-10-16T10:57:29;1.25;;;0.40;;
51475;SDS011;37554;50.362;7.568;2022-10-16T11:00:21;0.77;;;0.40;;
51475;SDS011;37554;50.362;7.568;2022-10-16T11:06:17;0.88;;;0.47;;
51475;SDS011;37554;50.362;7.568;2022-10-16T11:08:56;0.77;;;0.50;;
51475;SDS011;37554;50.362;7.568;2022-10-16T11:11:51;0.60;;;0.30;;
51475;SDS011;37554;50.362;7.568;2022-10-16T11:14:22;1.17;;;0.50;;
51475;SDS011;37554;50.362;7.568;2022-10-16T11:17:19;1.27;;;0.40;;
51475;SDS011;37554;50.362;7.568;2022-10-16T11:19:55;1.08;;;0.50;;
51475;SDS011;37554;50.362;7.568;2022-10-16T11:22:39;1.00;;;0.50;;
51475;SDS011;37554;50.362;7.568;2022-10-16T11:25:11;0.85;;;0.38;;
51475;SDS011;37554;50.362;7.568;2022-10-16T11:30:26;0.80;;;0.40;;
51475;SDS011;37554;50.362;7.568;2022-10-16T11:33:00;0.90;;;0.38;;
51475;SDS011;37554;50.362;7.568;2022-10-16T11:35:42;0.60;;;0.35;;
51475;SDS011;37554;50.362;7.568;2022-10-16T11:38:14;0.75;;;0.38;;
51475;SDS011;37554;50.362;7.568;2022-10-16T11:40:47;1.23;;;0.30;;
51475;SDS011;37554;50.362;7.568;2022-10-16T11:43:20;3.75;;;0.60;;
51475;SDS011;37554;50.362;7.568;2022-10-16T12:24:53;2.13;;;0.57;;
51475;SDS011;37554;50.362;7.568;2022-10-16T12:27:29;1.10;;;0.35;;
51475;SDS011;37554;50.362;7.568;2022-10-16T12:29:57;0.75;;;0.40;;
51475;SDS011;37554;50.362;7.568;2022-10-16T12:32:29;1.55;;;0.32;;
51475;SDS011;37554;50.362;7.568;2022-10-16T12:35:00;2.10;;;0.40;;
51475;SDS011;37554;50.362;7.568;2022-10-16T12:37:28;1.52;;;0.40;;
51475;SDS011;37554;50.362;7.568;2022-10-16T12:39:58;3.10;;;0.40;;
51475;SDS011;37554;50.362;7.568;2022-10-16T12:44:54;0.45;;;0.35;;
51475;SDS011;37554;50.362;7.568;2022-10-16T12:49:49;1.58;;;0.35;;
51475;SDS011;37554;50.362;7.568;2022-10-16T12:52:23;0.47;;;0.20;;
51475;SDS011;37554;50.362;7.568;2022-10-16T12:55:17;2.63;;;0.52;;
51475;SDS011;37554;50.362;7.568;2022-10-16T12:57:57;1.95;;;0.40;;
51475;SDS011;37554;50.362;7.568;2022-10-16T13:01:01;1.23;;;0.30;;
51475;SDS011;37554;50.362;7.568;2022-10-16T13:12:18;1.60;;;0.28;;
51475;SDS011;37554;50.362;7.568;2022-10-16T13:17:55;0.73;;;0.20;;
51475;SDS011;37554;50.362;7.568;2022-10-16T13:21:00;0.52;;;0.20;;
51475;SDS011;37554;50.362;7.568;2022-10-16T13:23:38;0.50;;;0.30;;
51475;SDS011;37554;50.362;7.568;2022-10-16T13:26:28;2.08;;;0.30;;
51475;SDS011;37554;50.362;7.568;2022-10-16T13:29:15;1.63;;;0.30;;
51475;SDS011;37554;50.362;7.568;2022-10-16T13:31:41;0.70;;;0.30;;
51475;SDS011;37554;50.362;7.568;2022-10-16T13:34:12;1.23;;;0.35;;
51475;SDS011;37554;50.362;7.568;2022-10-16T13:36:52;1.95;;;0.40;;
51475;SDS011;37554;50.362;7.568;2022-10-16T13:39:25;0.63;;;0.25;;
51475;SDS011;37554;50.362;7.568;2022-10-16T13:42:03;1.48;;;0.30;;
51475;SDS011;37554;50.362;7.568;2022-10-16T13:44:42;0.85;;;0.30;;
51475;SDS011;37554;50.362;7.568;2022-10-16T13:47:21;0.60;;;0.30;;
51475;SDS011;37554;50.362;7.568;2022-10-16T13:50:05;2.35;;;0.20;;
51475;SDS011;37554;50.362;7.568;2022-10-16T13:52:36;2.17;;;0.30;;
51475;SDS011;37554;50.362;7.568;2022-10-16T13:55:03;0.40;;;0.20;;
51475;SDS011;37554;50.362;7.568;2022-10-16T13:57:34;0.60;;;0.20;;
51475;SDS011;37554;50.362;7.568;2022-10-16T14:00:00;0.50;;;0.20;;
51475;SDS011;37554;50.362;7.568;2022-10-16T14:02:35;0.57;;;0.20;;
51475;SDS011;37554;50.362;7.568;2022-10-16T14:05:04;0.70;;;0.20;;
51475;SDS011;37554;50.362;7.568;2022-10-16T14:07:35;2.22;;;0.30;;
51475;SDS011;37554;50.362;7.568;2022-10-16T14:10:05;0.57;;;0.25;;
51475;SDS011;37554;50.362;7.568;2022-10-16T14:12:43;1.13;;;0.30;;
51475;SDS011;37554;50.362;7.568;2022-10-16T14:15:15;0.90;;;0.30;;
51475;SDS011;37554;50.362;7.568;2022-10-16T14:17:43;1.08;;;0.20;;
51475;SDS011;37554;50.362;7.568;2022-10-16T14:20:14;1.00;;;0.30;;
51475;SDS011;37554;50.362;7.568;2022-10-16T14:22:41;0.40;;;0.28;;
51475;SDS011;37554;50.362;7.568;2022-10-16T14:25:19;0.63;;;0.30;;
51475;SDS011;37554;50.362;7.568;2022-10-16T14:30:49;1.67;;;0.30;;
51475;SDS011;37554;50.362;7.568;2022-10-16T14:36:13;1.95;;;0.13;;
51475;SDS011;37554;50.362;7.568;2022-10-16T14:39:18;1.40;;;0.30;;
51475;SDS011;37554;50.362;7.568;2022-10-16T14:41:44;1.35;;;0.40;;
51475;SDS011;37554;50.362;7.568;2022-10-16T14:44:12;0.20;;;0.10;;
51475;SDS011;37554;50.362;7.568;2022-10-16T14:46:39;0.63;;;0.20;;
51475;SDS011;37554;50.362;7.568;2022-10-16T14:51:35;0.70;;;0.20;;
51475;SDS011;37554;50.362;7.568;2022-10-16T14:54:01;0.57;;;0.20;;
51475;SDS011;37554;50.362;7.568;2022-10-16T14:56:29;0.98;;;0.40;;
51475;SDS011;37554;50.362;7.568;2022-10-16T14:58:58;0.95;;;0.20;;
51475;SDS011;37554;50.362;7.568;2022-10-16T15:01:24;0.60;;;0.30;;
51475;SDS011;37554;50.362;7.568;2022-10-16T15:03:50;0.60;;;0.32;;
51475;SDS011;37554;50.362;7.568;2022-10-16T15:06:18;0.38;;;0.28;;
51475;SDS011;37554;50.362;7.568;2022-10-16T15:08:44;1.27;;;0.25;;
51475;SDS011;37554;50.362;7.568;2022-10-16T15:11:11;0.13;;;0.10;;
51475;SDS011;37554;50.362;7.568;2022-10-16T15:13:39;0.30;;;0.20;;
51475;SDS011;37554;50.362;7.568;2022-10-16T15:16:04;0.60;;;0.30;;
51475;SDS011;37554;50.362;7.568;2022-10-16T15:18:36;0.63;;;0.20;;
51475;SDS011;37554;50.362;7.568;2022-10-16T15:21:02;0.38;;;0.20;;
51475;SDS011;37554;50.362;7.568;2022-10-16T15:23:27;0.30;;;0.30;;
51475;SDS011;37554;50.362;7.568;2022-10-16T15:25:54;0.38;;;0.28;;
51475;SDS011;37554;50.362;7.568;2022-10-16T15:28:21;0.20;;;0.20;;
51475;SDS011;37554;50.362;7.568;2022-10-16T15:30:49;0.40;;;0.20;;
51475;SDS011;37554;50.362;7.568;2022-10-16T15:33:23;0.20;;;0.20;;
51475;SDS011;37554;50.362;7.568;2022-10-16T15:35:52;0.40;;;0.20;;
51475;SDS011;37554;50.362;7.568;2022-10-16T15:38:19;0.43;;;0.20;;
51475;SDS011;37554;50.362;7.568;2022-10-16T15:40:46;0.35;;;0.20;;
51475;SDS011;37554;50.362;7.568;2022-10-16T15:43:13;0.25;;;0.25;;
51475;SDS011;37554;50.362;7.568;2022-10-16T15:45:39;0.20;;;0.20;;
51475;SDS011;37554;50.362;7.568;2022-10-16T15:48:05;0.95;;;0.40;;
51475;SDS011;37554;50.362;7.568;2022-10-16T15:50:31;1.00;;;0.50;;
51475;SDS011;37554;50.362;7.568;2022-10-16T15:52:57;2.88;;;1.60;;
51475;SDS011;37554;50.362;7.568;2022-10-16T15:55:23;3.78;;;2.40;;
51475;SDS011;37554;50.362;7.568;2022-10-16T15:57:49;4.00;;;2.40;;
51475;SDS011;37554;50.362;7.568;2022-10-16T16:00:17;3.60;;;2.50;;
51475;SDS011;37554;50.362;7.568;2022-10-16T16:02:50;6.40;;;3.97;;
51475;SDS011;37554;50.362;7.568;2022-10-16T16:05:17;7.15;;;4.18;;
51475;SDS011;37554;50.362;7.568;2022-10-16T16:07:42;5.35;;;3.60;;
51475;SDS011;37554;50.362;7.568;2022-10-16T16:10:09;8.50;;;4.35;;
51475;SDS011;37554;50.362;7.568;2022-10-16T16:12:35;8.00;;;4.43;;
51475;SDS011;37554;50.362;7.568;2022-10-16T16:15:02;5.82;;;4.18;;
51475;SDS011;37554;50.362;7.568;2022-10-16T16:17:30;8.85;;;4.75;;
51475;SDS011;37554;50.362;7.568;2022-10-16T16:19:56;8.00;;;4.60;;
51475;SDS011;37554;50.362;7.568;2022-10-16T16:22:21;5.97;;;4.78;;
51475;SDS011;37554;50.362;7.568;2022-10-16T16:24:47;8.05;;;4.60;;
51475;SDS011;37554;50.362;7.568;2022-10-16T16:27:12;8.00;;;5.00;;
51475;SDS011;37554;50.362;7.568;2022-10-16T16:29:38;6.32;;;4.63;;
51475;SDS011;37554;50.362;7.568;2022-10-16T16:32:04;8.15;;;5.10;;
51475;SDS011;37554;50.362;7.568;2022-10-16T16:34:31;9.63;;;5.45;;
51475;SDS011;37554;50.362;7.568;2022-10-16T16:36:56;7.60;;;5.13;;
51475;SDS011;37554;50.362;7.568;2022-10-16T16:39:22;8.52;;;5.07;;
51475;SDS011;37554;50.362;7.568;2022-10-16T16:41:48;7.53;;;5.00;;
51475;SDS011;37554;50.362;7.568;2022-10-16T16:44:14;7.53;;;4.72;;
51475;SDS011;37554;50.362;7.568;2022-10-16T16:46:41;9.07;;;5.65;;
51475;SDS011;37554;50.362;7.568;2022-10-16T16:49:09;7.15;;;4.95;;
51475;SDS011;37554;50.362;7.568;2022-10-16T16:51:36;7.22;;;4.93;;
51475;SDS011;37554;50.362;7.568;2022-10-16T16:54:02;7.03;;;4.82;;
51475;SDS011;37554;50.362;7.568;2022-10-16T16:56:28;7.47;;;4.70;;
51475;SDS011;37554;50.362;7.568;2022-10-16T16:58:54;6.40;;;4.55;;
51475;SDS011;37554;50.362;7.568;2022-10-16T17:01:21;8.48;;;4.90;;
51475;SDS011;37554;50.362;7.568;2022-10-16T17:03:50;6.80;;;4.90;;
51475;SDS011;37554;50.362;7.568;2022-10-16T17:06:17;7.32;;;4.50;;
51475;SDS011;37554;50.362;7.568;2022-10-16T17:08:45;7.28;;;4.78;;
51475;SDS011;37554;50.362;7.568;2022-10-16T17:11:11;6.32;;;4.85;;
51475;SDS011;37554;50.362;7.568;2022-10-16T17:13:39;7.97;;;5.03;;
51475;SDS011;37554;50.362;7.568;2022-10-16T17:16:05;6.32;;;4.50;;
51475;SDS011;37554;50.362;7.568;2022-10-16T17:18:31;7.65;;;4.90;;
51475;SDS011;37554;50.362;7.568;2022-10-16T17:20:58;7.80;;;4.63;;
51475;SDS011;37554;50.362;7.568;2022-10-16T17:23:25;7.30;;;4.90;;
51475;SDS011;37554;50.362;7.568;2022-10-16T17:25:50;6.40;;;4.60;;
51475;SDS011;37554;50.362;7.568;2022-10-16T17:28:16;6.90;;;4.80;;
51475;SDS011;37554;50.362;7.568;2022-10-16T17:30:42;5.70;;;4.15;;